Time;durP1;ratioP1;P1;durP2;ratioP2;P2;SDS_P1;SDS_P2;PMS_P1;PMS_P2;Temp;Humidity;BMP_temperature;BMP_pressure;BME280_temperature;BME280_humidity;BME280_pressure;Samples;Min_cycle;Max_cycle;Signal;HPM_P1;HPM_P2
2022/01/26 00:00:41;;;;;;;231.32;50.00;;;;;;;2.42;82.10;103339.97;5077628;28;20028;-70
2022/01/26 00:05:59;;;;;;;226.52;50.15;;;;;;;2.44;82.89;103356.44;5078365;28;20027;-70
2022/01/26 00:08:26;;;;;;;241.15;51.08;;;;;;;2.43;82.62;103356.31;5102745;28;20015;-70
2022/01/26 00:10:51;;;;;;;216.43;49.42;;;;;;;2.44;82.52;103368.41;5095977;28;20023;-70
2022/01/26 00:13:16;;;;;;;223.35;48.92;;;;;;;2.44;82.42;103359.03;5082347;28;20043;-70
2022/01/26 00:15:42;;;;;;;243.82;51.00;;;;;;;2.43;83.20;103361.44;5091160;28;20125;-70
2022/01/26 00:18:07;;;;;;;234.27;52.15;;;;;;;2.41;82.68;103352.69;5082235;28;20024;-70
2022/01/26 00:20:40;;;;;;;231.15;49.95;;;;;;;2.40;82.64;103351.78;5099918;28;20133;-70
2022/01/26 00:25:48;;;;;;;228.98;51.60;;;;;;;2.42;82.72;103354.50;5098911;28;20024;-70
2022/01/26 00:28:33;;;;;;;228.57;51.50;;;;;;;2.43;83.62;103352.09;5086065;28;20174;-70
2022/01/26 00:38:54;;;;;;;225.23;49.45;;;;;;;2.41;83.77;103345.88;5090092;28;20091;-70
2022/01/26 00:41:33;;;;;;;219.88;47.85;;;;;;;2.40;83.63;103343.16;5087010;28;20012;-70
2022/01/26 00:43:59;;;;;;;224.50;51.22;;;;;;;2.40;83.26;103340.56;5080976;28;20058;-70
2022/01/26 00:46:26;;;;;;;226.25;49.53;;;;;;;2.38;83.53;103337.84;5078402;28;20004;-70
2022/01/26 00:48:51;;;;;;;228.82;47.80;;;;;;;2.39;83.70;103343.91;5084022;28;20016;-70
2022/01/26 00:51:20;;;;;;;253.60;52.35;;;;;;;2.38;83.74;103352.41;5098716;28;20050;-70
2022/01/26 00:53:53;;;;;;;232.05;48.55;;;;;;;2.40;83.54;103351.78;5091013;28;20087;-70
2022/01/26 00:56:19;;;;;;;232.48;49.97;;;;;;;2.40;83.34;103338.00;5091070;28;20027;-70
2022/01/26 00:58:45;;;;;;;249.95;52.28;;;;;;;2.40;83.58;103345.72;5105352;28;20323;-70
2022/01/26 01:01:10;;;;;;;231.52;49.63;;;;;;;2.40;83.42;103343.16;5070676;28;20024;-70
2022/01/26 01:03:40;;;;;;;220.63;48.45;;;;;;;2.38;83.03;103342.09;5087946;28;20031;-70
2022/01/26 01:06:22;;;;;;;243.50;51.53;;;;;;;2.36;83.59;103338.47;5095503;28;20016;-70
2022/01/26 01:08:48;;;;;;;228.90;47.60;;;;;;;2.35;83.52;103341.81;5096339;28;20016;-70
2022/01/26 01:11:14;;;;;;;235.75;51.13;;;;;;;2.34;82.12;103350.28;5092710;28;20083;-70
2022/01/26 01:13:41;;;;;;;225.07;48.42;;;;;;;2.32;82.10;103344.06;5104366;28;20277;-70
2022/01/26 01:16:11;;;;;;;229.57;49.25;;;;;;;2.31;82.18;103337.13;5085729;28;20099;-70
2022/01/26 01:21:39;;;;;;;237.43;50.38;;;;;;;2.30;82.82;103322.44;5082877;28;20036;-70
2022/01/26 01:34:17;;;;;;;225.25;46.83;;;;;;;2.26;84.20;103311.84;5085439;28;20152;-70
2022/01/26 01:36:45;;;;;;;220.07;50.40;;;;;;;2.28;84.21;103313.69;5092907;28;20032;-70
2022/01/26 01:39:11;;;;;;;227.50;48.43;;;;;;;2.27;83.67;103305.03;5096276;28;20019;-70
2022/01/26 01:41:39;;;;;;;227.43;51.47;;;;;;;2.26;83.68;103300.66;5096148;28;20404;-70
2022/01/26 01:44:06;;;;;;;228.55;50.58;;;;;;;2.26;84.41;103304.13;5086346;28;20026;-70
2022/01/26 01:46:33;;;;;;;223.48;46.97;;;;;;;2.26;83.33;103305.81;5094023;28;20036;-70
2022/01/26 01:48:59;;;;;;;233.98;47.28;;;;;;;2.24;84.35;103303.06;5070974;28;20059;-70
2022/01/26 01:51:30;;;;;;;226.73;48.05;;;;;;;2.24;84.36;103304.72;5097847;28;20042;-70
2022/01/26 01:53:55;;;;;;;231.30;51.97;;;;;;;2.24;83.91;103317.59;5105958;28;20044;-70
2022/01/26 01:56:25;;;;;;;226.13;48.97;;;;;;;2.24;84.42;103315.03;5096411;28;20024;-70
2022/01/26 01:58:52;;;;;;;;;;;;;;;2.30;84.23;103317.28;5086977;28;20245;-70
2022/01/26 02:01:17;;;;;;;227.63;46.95;;;;;;;2.26;83.96;103300.66;5098066;28;19990;-70
2022/01/26 02:03:42;;;;;;;230.00;49.47;;;;;;;2.25;84.17;103299.72;5071638;28;20391;-69
2022/01/26 02:06:08;;;;;;;227.68;47.92;;;;;;;2.24;84.29;103305.63;5094616;28;20024;-70
2022/01/26 02:08:33;;;;;;;238.35;51.03;;;;;;;2.24;83.22;103307.31;5084621;28;20031;-70
2022/01/26 02:10:59;;;;;;;230.93;49.05;;;;;;;2.21;83.48;103305.34;5094103;28;20267;-70
2022/01/26 02:13:32;;;;;;;221.70;49.33;;;;;;;2.22;83.98;103291.72;5092326;28;20532;-70
2022/01/26 02:16:14;;;;;;;235.23;48.40;;;;;;;2.21;84.12;103287.31;5086419;28;20098;-70
2022/01/26 02:56:48;;;;;;;233.55;49.17;;;;;;;2.09;82.72;103239.88;5079564;28;20027;-70
2022/01/26 03:01:56;;;;;;;233.73;47.88;;;;;;;2.10;83.21;103236.53;5080039;28;20024;-70
2022/01/26 03:06:55;;;;;;;222.90;46.40;;;;;;;2.11;82.99;103235.75;5099722;28;20233;-70
2022/01/26 03:09:26;;;;;;;217.27;47.72;;;;;;;2.11;83.11;103243.47;5090064;28;20223;-70
2022/01/26 03:11:53;;;;;;;201.35;45.97;;;;;;;2.11;83.19;103238.34;5093736;28;20080;-70
2022/01/26 03:16:53;;;;;;;223.77;47.00;;;;;;;2.11;82.90;103228.03;5081637;28;20025;-70
2022/01/26 03:19:55;;;;;;;224.50;46.50;;;;;;;2.11;82.71;103232.28;5104413;28;20024;-70
2022/01/26 03:35:48;;;;;;;229.45;47.25;;;;;;;2.08;83.82;103244.06;5089806;28;20031;-70
2022/01/26 03:38:28;;;;;;;223.13;46.40;;;;;;;2.08;83.14;103230.31;5077473;28;20174;-70
2022/01/26 03:41:11;;;;;;;212.88;46.20;;;;;;;2.07;82.94;103238.78;5104143;28;20020;-70
2022/01/26 03:43:36;;;;;;;226.00;45.70;;;;;;;2.07;83.29;103241.38;5081168;28;20254;-70
2022/01/26 03:46:02;;;;;;;213.98;48.30;;;;;;;2.07;83.15;103243.94;5097488;28;20058;-70
2022/01/26 03:48:30;;;;;;;227.63;47.42;;;;;;;2.07;83.01;103237.16;5103425;28;20034;-69
2022/01/26 03:51:01;;;;;;;207.05;44.78;;;;;;;2.08;83.12;103226.06;5101799;28;20087;-70
2022/01/26 03:53:28;;;;;;;227.30;46.75;;;;;;;2.06;84.26;103216.44;5080895;28;20067;-69
2022/01/26 03:55:55;;;;;;;218.57;46.55;;;;;;;2.02;84.88;103216.88;5086396;28;20047;-70
2022/01/26 03:58:22;;;;;;;235.05;47.95;;;;;;;1.97;85.28;103218.09;5077097;28;20327;-70
2022/01/26 04:00:52;;;;;;;244.10;48.15;;;;;;;1.90;85.66;103227.78;5097393;28;20096;-70
2022/01/26 04:03:20;;;;;;;227.57;47.20;;;;;;;1.85;84.82;103221.28;5076333;28;20021;-70
2022/01/26 04:05:47;;;;;;;238.10;48.05;;;;;;;1.83;85.33;103224.47;5081388;28;20017;-70
2022/01/26 04:08:20;;;;;;;230.10;46.70;;;;;;;1.81;84.91;103231.13;5092585;28;20016;-68
2022/01/26 04:13:31;;;;;;;220.05;46.80;;;;;;;1.83;85.09;103240.81;5091154;28;20259;-70
2022/01/26 04:16:00;;;;;;;235.93;47.70;;;;;;;1.84;85.02;103227.19;5082798;28;20052;-70
2022/01/26 04:18:33;;;;;;;227.73;47.57;;;;;;;1.84;84.74;103227.19;5081535;28;20553;-70
2022/01/26 04:21:03;;;;;;;226.07;50.80;;;;;;;1.85;84.33;103221.28;5076623;28;20270;-70
2022/01/26 04:23:40;;;;;;;217.48;47.15;;;;;;;1.87;84.07;103229.16;5081225;28;20020;-70
2022/01/26 04:26:06;;;;;;;229.13;49.25;;;;;;;1.88;84.61;103223.25;5072127;28;20031;-70
2022/01/26 04:28:39;;;;;;;233.15;46.75;;;;;;;1.86;84.09;103223.09;5083408;28;20245;-71
2022/01/26 04:31:05;;;;;;;225.68;47.30;;;;;;;1.87;85.06;103237.78;5106268;28;20047;-70
2022/01/26 04:33:33;;;;;;;227.43;48.90;;;;;;;1.87;84.91;103234.31;5082864;28;20286;-70
2022/01/26 04:35:58;;;;;;;229.88;46.92;;;;;;;1.86;83.95;103233.38;5101773;28;20024;-70
2022/01/26 04:38:32;;;;;;;223.30;47.15;;;;;;;1.85;84.07;103236.69;5102894;28;20100;-70
2022/01/26 04:41:17;;;;;;;229.18;45.90;;;;;;;1.88;84.34;103244.75;5107303;28;20025;-70
2022/01/26 04:43:45;;;;;;;220.70;45.78;;;;;;;1.89;84.17;103246.53;5087477;28;20015;-70
2022/01/26 04:46:10;;;;;;;222.32;47.75;;;;;;;1.90;83.81;103257.75;5100595;28;20019;-70
2022/01/26 04:48:36;;;;;;;231.18;47.42;;;;;;;1.91;83.95;103263.03;5087330;28;20019;-70
2022/01/26 04:51:01;;;;;;;222.05;45.60;;;;;;;1.91;83.91;103263.03;5079675;28;20021;-70
2022/01/26 04:53:26;;;;;;;235.25;46.10;;;;;;;1.94;83.74;103269.22;5087928;28;20289;-70
2022/01/26 04:55:52;;;;;;;226.63;47.05;;;;;;;1.94;84.25;103272.72;5085630;28;20042;-70
2022/01/26 04:58:17;;;;;;;212.35;46.58;;;;;;;1.94;84.08;103252.16;5099071;28;20021;-70
2022/01/26 05:00:42;;;;;;;234.00;46.67;;;;;;;1.94;84.00;103265.00;5101354;28;20056;-70
2022/01/26 05:03:08;;;;;;;219.27;45.90;;;;;;;1.95;83.44;103269.38;5068829;28;20021;-70
2022/01/26 05:05:33;;;;;;;232.70;47.08;;;;;;;1.96;83.53;103260.00;5069537;28;20025;-70
2022/01/26 05:07:58;;;;;;;227.43;50.10;;;;;;;1.95;83.59;103255.63;5096462;28;20317;-70
2022/01/26 05:10:24;;;;;;;226.52;47.63;;;;;;;1.92;83.05;103246.81;5105692;28;20060;-70
2022/01/26 05:12:49;;;;;;;223.98;45.53;;;;;;;1.91;84.10;103255.31;5090537;28;20020;-70
2022/01/26 05:15:14;;;;;;;220.30;44.40;;;;;;;1.92;83.62;103257.09;5096722;28;20024;-70
2022/01/26 05:17:41;;;;;;;217.00;45.25;;;;;;;1.91;83.54;103255.31;5084678;28;20024;-69
2022/01/26 05:20:09;;;;;;;217.05;44.53;;;;;;;1.91;83.58;103245.03;5101810;28;20027;-70
2022/01/26 05:22:39;;;;;;;227.18;46.20;;;;;;;1.91;83.76;103228.69;5095988;28;20108;-70
2022/01/26 05:25:05;;;;;;;243.98;49.58;;;;;;;1.89;84.05;103225.97;5092101;28;20032;-70
2022/01/26 05:27:30;;;;;;;212.95;44.72;;;;;;;1.89;83.77;103225.06;5082344;28;20038;-70
2022/01/26 05:29:55;;;;;;;234.60;46.65;;;;;;;1.88;84.19;103194.97;5096255;28;20079;-70
2022/01/26 05:32:20;;;;;;;235.00;48.05;;;;;;;1.86;83.86;103209.34;5088927;28;20020;-70
2022/01/26 05:34:46;;;;;;;228.45;45.72;;;;;;;1.86;84.76;103206.78;5100533;28;20016;-70
2022/01/26 05:37:11;;;;;;;217.93;45.83;;;;;;;1.84;84.07;103211.78;5077804;28;20063;-70
2022/01/26 05:39:38;;;;;;;235.35;47.08;;;;;;;1.82;84.07;103213.28;5083497;28;20016;-70
2022/01/26 05:42:07;;;;;;;228.65;46.20;;;;;;;1.81;84.33;103216.63;5105765;28;20020;-70
2022/01/26 05:44:32;;;;;;;218.32;46.00;;;;;;;1.83;83.98;103214.19;5079998;28;20024;-70
2022/01/26 05:46:58;;;;;;;227.45;46.50;;;;;;;1.82;84.28;103217.53;5101950;28;20255;-70
2022/01/26 05:49:24;;;;;;;230.13;46.90;;;;;;;1.81;84.20;103210.56;5094131;28;20020;-70
2022/01/26 05:51:50;;;;;;;222.40;47.60;;;;;;;1.81;84.56;103216.63;5097474;28;20018;-70
2022/01/26 05:54:16;;;;;;;230.30;49.45;;;;;;;1.79;84.62;103212.97;5096501;28;20021;-70
2022/01/26 05:56:46;;;;;;;219.63;47.15;;;;;;;1.78;83.92;103208.59;5074950;28;20219;-70
2022/01/26 05:59:17;;;;;;;233.15;47.85;;;;;;;1.79;84.61;103218.13;5075178;28;20259;-70
2022/01/26 06:01:42;;;;;;;231.20;48.40;;;;;;;1.80;84.57;103204.53;5085891;28;20251;-70
2022/01/26 06:04:08;;;;;;;231.20;47.88;;;;;;;1.81;84.96;103198.63;5092943;28;20020;-70
2022/01/26 06:06:33;;;;;;;246.52;50.58;;;;;;;1.81;85.26;103201.19;5105699;28;20022;-70
2022/01/26 06:08:58;;;;;;;217.30;47.03;;;;;;;1.80;84.82;103194.25;5093641;28;20077;-70
2022/01/26 06:11:23;;;;;;;234.80;50.47;;;;;;;1.80;84.96;103201.94;5096969;28;20062;-70
2022/01/26 06:13:49;;;;;;;235.45;52.33;;;;;;;1.80;84.40;103196.81;5076025;28;20024;-70
2022/01/26 06:16:16;;;;;;;224.60;48.85;;;;;;;1.81;85.13;103197.69;5087637;28;20074;-70
2022/01/26 06:18:43;;;;;;;241.55;50.05;;;;;;;1.82;84.94;103214.94;5086320;28;20086;-70
2022/01/26 06:21:09;;;;;;;249.63;49.17;;;;;;;1.83;85.03;103220.25;5101392;28;20255;-70
2022/01/26 06:23:34;;;;;;;232.60;49.97;;;;;;;1.84;85.17;103226.28;5100338;28;20018;-70
2022/01/26 06:25:59;;;;;;;226.63;51.03;;;;;;;1.83;85.65;103220.25;5105383;28;20092;-70
2022/01/26 06:28:27;;;;;;;227.77;48.60;;;;;;;1.85;85.41;103212.66;5077083;28;20016;-70
2022/01/26 06:30:56;;;;;;;232.88;49.28;;;;;;;1.84;85.70;103201.50;5081621;28;20020;-70
2022/01/26 06:33:22;;;;;;;227.75;49.92;;;;;;;1.84;85.51;103201.50;5084541;28;20020;-70
2022/01/26 06:35:48;;;;;;;230.77;48.03;;;;;;;1.85;85.94;103198.13;5095746;28;20147;-70
2022/01/26 06:38:14;;;;;;;237.15;49.05;;;;;;;1.86;86.22;103193.94;5089200;28;20322;-70
2022/01/26 06:40:40;;;;;;;211.25;48.45;;;;;;;1.85;86.10;103203.28;5090113;28;20029;-70
2022/01/26 06:43:10;;;;;;;236.82;49.42;;;;;;;1.87;85.28;103206.03;5092493;28;20024;-70
2022/01/26 06:45:42;;;;;;;231.48;50.45;;;;;;;1.86;85.45;103207.69;5100963;28;20031;-70
2022/01/26 06:48:42;;;;;;;223.57;47.90;;;;;;;1.87;86.12;103214.63;5083953;28;20051;-70
2022/01/26 06:51:07;;;;;;;;;;;;;;;1.91;86.04;103219.31;5101879;28;20016;-70
2022/01/26 06:53:33;;;;;;;211.15;47.70;;;;;;;1.89;85.98;103225.97;5097632;28;19932;-70
2022/01/26 06:55:58;;;;;;;239.05;52.38;;;;;;;1.90;85.80;103225.22;5090956;28;20017;-70
2022/01/26 06:58:24;;;;;;;236.30;50.15;;;;;;;1.90;86.63;103214.94;5090431;28;20025;-70
2022/01/26 07:00:49;;;;;;;233.55;49.75;;;;;;;1.90;86.19;103203.75;5083186;28;20013;-70
2022/01/26 07:03:14;;;;;;;220.15;48.47;;;;;;;1.91;86.07;103206.47;5081933;28;20040;-70
2022/01/26 07:05:40;;;;;;;228.07;48.92;;;;;;;1.91;86.68;103215.81;5096760;28;20152;-70
2022/01/26 07:08:06;;;;;;;233.88;53.17;;;;;;;1.91;86.83;103211.63;5099059;28;20032;-70
2022/01/26 07:10:32;;;;;;;238.32;53.08;;;;;;;1.92;86.64;103203.13;5104599;28;20365;-70
2022/01/26 07:12:57;;;;;;;229.82;51.90;;;;;;;1.91;87.01;103198.75;5071238;28;20023;-70
2022/01/26 07:23:34;;;;;;;242.43;51.83;;;;;;;1.92;86.99;103225.38;5092222;28;20055;-70
2022/01/26 07:25:59;;;;;;;244.52;51.25;;;;;;;1.89;87.29;103238.81;5104230;28;20159;-70
2022/01/26 07:28:26;;;;;;;250.27;51.00;;;;;;;1.90;87.09;103242.31;5086812;28;20243;-70
2022/01/26 07:30:51;;;;;;;262.35;52.88;;;;;;;1.90;87.47;103234.59;5081703;28;20025;-70
2022/01/26 07:33:17;;;;;;;248.48;52.45;;;;;;;1.90;87.98;103225.22;5095427;28;20148;-70
2022/01/26 07:35:42;;;;;;;242.98;51.72;;;;;;;1.91;87.97;103234.75;5075019;28;20087;-70
2022/01/26 07:38:08;;;;;;;267.10;55.70;;;;;;;1.90;87.91;103230.34;5085946;28;20160;-70
2022/01/26 07:40:33;;;;;;;252.43;55.97;;;;;;;1.88;87.93;103230.97;5090103;28;20197;-70
2022/01/26 07:42:58;;;;;;;264.45;52.67;;;;;;;1.86;88.29;103227.34;5078740;28;20024;-70
2022/01/26 07:45:24;;;;;;;263.75;54.20;;;;;;;1.86;88.69;103232.50;5078259;28;20033;-70
2022/01/26 07:47:52;;;;;;;250.38;52.40;;;;;;;1.85;88.41;103228.09;5074758;28;20024;-70
2022/01/26 07:50:19;;;;;;;269.13;55.50;;;;;;;1.87;89.20;103231.75;5078542;28;20023;-70
2022/01/26 07:52:45;;;;;;;249.30;54.30;;;;;;;1.86;88.33;103235.97;5078633;28;20076;-70
2022/01/26 07:55:15;;;;;;;272.08;53.47;;;;;;;1.87;89.41;103227.50;5081259;28;20277;-70
2022/01/26 07:57:43;;;;;;;261.60;53.33;;;;;;;1.88;89.21;103224.19;5088537;28;20030;-70
2022/01/26 08:00:09;;;;;;;237.23;51.30;;;;;;;1.87;89.25;103240.34;5070454;28;20022;-70
2022/01/26 08:02:34;;;;;;;257.30;52.42;;;;;;;1.88;89.10;103256.66;5076402;28;20039;-70
2022/01/26 08:05:00;;;;;;;264.52;52.67;;;;;;;1.88;89.19;103262.75;5073092;28;20017;-70
2022/01/26 08:07:26;;;;;;;259.77;52.67;;;;;;;1.89;89.45;103261.06;5082222;28;20020;-70
2022/01/26 08:09:51;;;;;;;251.05;53.20;;;;;;;1.90;90.04;103263.78;5071730;28;20040;-70
2022/01/26 08:12:16;;;;;;;244.10;53.15;;;;;;;1.92;89.75;103256.22;5091992;28;20174;-70
2022/01/26 08:14:43;;;;;;;239.02;51.10;;;;;;;1.91;90.10;103254.38;5081397;28;20032;-70
2022/01/26 08:17:09;;;;;;;253.55;53.92;;;;;;;1.91;90.54;103260.47;5081710;28;20301;-70
2022/01/26 08:19:35;;;;;;;252.88;52.65;;;;;;;1.91;90.10;103265.59;5076842;28;20028;-70
2022/01/26 08:22:01;;;;;;;255.65;53.55;;;;;;;1.92;90.55;103272.53;5081061;28;20063;-72
2022/01/26 08:24:31;;;;;;;262.70;53.45;;;;;;;1.92;90.59;103271.66;5096440;28;20028;-72
2022/01/26 08:27:00;;;;;;;270.85;53.33;;;;;;;1.92;90.17;103262.25;5096116;28;20025;-70
2022/01/26 08:29:33;;;;;;;;;;;;;;;1.96;89.78;103255.75;5078286;28;20024;-70
2022/01/26 08:31:59;;;;;;;250.35;50.53;;;;;;;1.95;90.67;103247.91;5077082;28;19914;-70
2022/01/26 08:34:24;;;;;;;247.90;49.17;;;;;;;1.97;90.67;103259.22;5076809;28;20074;-70
2022/01/26 08:36:50;;;;;;;245.45;50.80;;;;;;;1.96;90.91;103255.75;5076737;28;20017;-70
2022/01/26 08:39:15;;;;;;;249.55;51.20;;;;;;;1.96;90.80;103262.59;5089077;28;20027;-70
2022/01/26 08:41:43;;;;;;;250.10;50.22;;;;;;;1.96;90.53;103262.59;5075392;28;20574;-70
2022/01/26 08:44:08;;;;;;;249.50;50.08;;;;;;;1.97;91.50;103261.81;5083187;28;20024;-70
2022/01/26 08:46:34;;;;;;;250.35;51.78;;;;;;;1.98;91.63;103258.47;5094642;28;20035;-70
2022/01/26 08:48:59;;;;;;;246.82;50.42;;;;;;;1.99;91.12;103275.72;5088890;28;20016;-70
2022/01/26 08:51:24;;;;;;;257.73;49.55;;;;;;;1.98;91.35;103261.06;5076782;28;20013;-70
2022/01/26 08:53:50;;;;;;;240.70;50.97;;;;;;;2.00;91.32;103267.25;5077230;28;20031;-70
2022/01/26 08:56:16;;;;;;;250.75;49.28;;;;;;;2.00;91.48;103268.16;5075800;28;20017;-71
2022/01/26 08:58:42;;;;;;;237.80;49.42;;;;;;;2.01;91.22;103276.78;5089929;28;20035;-70
2022/01/26 09:01:07;;;;;;;255.35;50.13;;;;;;;2.03;91.51;103273.59;5087342;28;20024;-70
2022/01/26 09:03:38;;;;;;;243.52;50.63;;;;;;;2.03;91.47;103270.13;5079212;28;20086;-70
2022/01/26 09:06:04;;;;;;;247.57;48.15;;;;;;;2.02;91.62;103258.94;5091084;28;20031;-70
2022/01/26 09:08:29;;;;;;;237.68;50.17;;;;;;;2.02;91.66;103256.34;5090267;28;20126;-70
2022/01/26 09:10:59;;;;;;;230.25;49.63;;;;;;;2.04;91.99;103266.78;5085104;28;20130;-70
2022/01/26 09:13:25;;;;;;;240.32;50.97;;;;;;;2.07;91.98;103254.22;5080130;28;20062;-70
2022/01/26 09:15:50;;;;;;;232.13;49.85;;;;;;;2.06;91.84;103262.72;5078739;28;20024;-70
2022/01/26 09:18:20;;;;;;;225.63;47.13;;;;;;;2.08;92.03;103266.31;5078762;28;20073;-70
2022/01/26 09:20:45;;;;;;;;;;;;;;;2.13;91.21;103266.78;5075431;28;20027;-70
2022/01/26 09:23:11;;;;;;;226.88;46.75;;;;;;;2.12;91.77;103263.31;5077632;28;19904;-70
2022/01/26 09:25:36;;;;;;;218.13;46.92;;;;;;;2.11;91.78;103266.63;5075336;28;20012;-70
2022/01/26 09:28:02;;;;;;;229.25;47.55;;;;;;;2.13;92.07;103279.63;5079364;28;20254;-70
2022/01/26 09:30:27;;;;;;;220.80;46.25;;;;;;;2.13;91.45;103277.06;5078195;28;20017;-70
2022/01/26 09:32:53;;;;;;;216.80;47.22;;;;;;;2.15;91.19;103280.72;5093006;28;20016;-70
2022/01/26 09:35:18;;;;;;;212.85;45.58;;;;;;;2.15;91.15;103281.59;5094688;28;20020;-70
2022/01/26 09:37:43;;;;;;;226.45;48.90;;;;;;;2.17;91.41;103282.69;5089432;28;20268;-70
2022/01/26 09:40:09;;;;;;;224.20;47.40;;;;;;;2.19;91.60;103272.53;5106371;28;20020;-70
2022/01/26 09:42:36;;;;;;;219.50;47.13;;;;;;;2.20;91.66;103270.09;5079186;28;20275;-70
2022/01/26 09:45:04;;;;;;;226.57;49.92;;;;;;;2.21;91.57;103269.31;5095739;28;20030;-70
2022/01/26 09:47:29;;;;;;;221.63;45.75;;;;;;;2.22;92.01;103260.84;5083594;28;20020;-70
2022/01/26 09:49:55;;;;;;;200.30;46.35;;;;;;;2.24;91.40;103256.75;5106352;28;20039;-70
2022/01/26 09:52:27;;;;;;;212.95;47.22;;;;;;;2.24;91.64;103246.47;5103812;28;20020;-70
2022/01/26 09:54:56;;;;;;;227.32;47.75;;;;;;;2.24;91.23;103241.31;5086566;28;20031;-70
2022/01/26 09:57:22;;;;;;;227.98;47.03;;;;;;;2.26;90.99;103244.06;5093403;28;20027;-70
2022/01/26 09:59:48;;;;;;;227.00;47.17;;;;;;;2.29;91.28;103240.88;5106060;28;20087;-70
2022/01/26 10:02:25;;;;;;;194.98;45.92;;;;;;;2.31;90.92;103250.53;5073851;28;20017;-70
2022/01/26 10:05:10;;;;;;;196.80;45.00;;;;;;;2.33;90.80;103248.13;5069202;28;20016;-70
2022/01/26 10:07:47;;;;;;;196.45;46.15;;;;;;;2.34;91.00;103244.78;5066993;28;20821;-70
2022/01/26 10:15:50;;;;;;;171.57;40.88;;;;;;;2.33;90.20;103246.47;5098054;28;20051;-70
2022/01/26 10:18:21;;;;;;;195.73;44.42;;;;;;;2.37;90.22;103247.66;5079757;28;20065;-70
2022/01/26 10:20:46;;;;;;;180.10;42.05;;;;;;;2.37;90.79;103248.56;5085257;28;20040;-70
2022/01/26 10:23:16;;;;;;;178.23;45.25;;;;;;;2.40;89.99;103241.16;5067668;28;20024;-70
2022/01/26 10:25:47;;;;;;;174.27;40.20;;;;;;;2.40;90.33;103232.50;5072858;28;20107;-70
2022/01/26 10:28:15;;;;;;;174.73;40.67;;;;;;;2.41;90.46;103230.09;5078075;28;20028;-65
2022/01/26 10:30:45;;;;;;;176.20;41.70;;;;;;;2.43;89.92;103222.50;5086082;28;20039;-66
2022/01/26 10:33:11;;;;;;;174.05;41.47;;;;;;;2.43;90.36;103230.22;5075106;28;20020;-66
2022/01/26 10:35:37;;;;;;;155.73;41.15;;;;;;;2.44;89.57;103229.47;5084585;28;20043;-66
2022/01/26 10:38:03;;;;;;;162.82;41.20;;;;;;;2.46;89.62;103245.94;5090744;28;20019;-66
2022/01/26 10:40:30;;;;;;;168.65;43.05;;;;;;;2.47;89.79;103257.16;5093245;28;20020;-66
2022/01/26 10:42:56;;;;;;;169.20;44.35;;;;;;;2.48;89.65;103274.41;5083463;28;20111;-66
2022/01/26 10:45:43;;;;;;;158.57;40.30;;;;;;;2.49;89.97;103295.16;5089218;28;20020;-66
2022/01/26 10:48:21;;;;;;;160.25;42.22;;;;;;;2.49;90.03;103299.38;5101408;28;20035;-66
2022/01/26 10:51:09;;;;;;;169.45;40.78;;;;;;;2.51;90.28;103293.63;5079717;28;20016;-66
2022/01/26 10:53:38;;;;;;;165.35;42.65;;;;;;;2.53;90.31;103281.81;5082323;28;20060;-66
2022/01/26 10:56:05;;;;;;;166.35;41.83;;;;;;;2.54;89.83;103277.59;5103156;28;20016;-65
2022/01/26 10:58:30;;;;;;;161.38;40.70;;;;;;;2.55;90.33;103285.44;5097447;28;20275;-66
2022/01/26 11:00:57;;;;;;;170.80;43.75;;;;;;;2.54;90.19;103283.63;5090816;28;20031;-66
2022/01/26 11:03:22;;;;;;;161.10;42.42;;;;;;;2.54;90.15;103275.91;5074777;28;20122;-66
2022/01/26 11:05:48;;;;;;;164.23;41.33;;;;;;;2.54;90.24;103268.19;5080389;28;20259;-65
2022/01/26 11:08:15;;;;;;;175.55;42.92;;;;;;;2.53;90.50;103270.63;5074265;28;20033;-66
2022/01/26 11:10:41;;;;;;;163.45;40.50;;;;;;;2.54;90.59;103269.88;5103498;28;20281;-66
2022/01/26 11:13:07;;;;;;;158.02;41.28;;;;;;;2.55;90.57;103276.81;5083527;28;20197;-66
2022/01/26 11:15:33;;;;;;;171.88;43.20;;;;;;;2.55;90.83;103263.94;5084403;28;20024;-66
2022/01/26 11:18:10;;;;;;;169.55;41.47;;;;;;;2.58;90.76;103266.81;5082120;28;20021;-66
2022/01/26 11:20:49;;;;;;;175.30;41.72;;;;;;;2.57;90.59;103268.47;5078593;28;20023;-66
2022/01/26 11:23:17;;;;;;;165.95;41.40;;;;;;;2.58;91.08;103260.00;5095626;28;20051;-66
2022/01/26 11:25:44;;;;;;;185.82;43.75;;;;;;;2.58;90.75;103253.97;5097375;28;20281;-66
2022/01/26 11:28:24;;;;;;;171.88;42.05;;;;;;;2.60;90.99;103252.44;5085230;28;20017;-66
2022/01/26 11:30:51;;;;;;;175.95;42.75;;;;;;;2.58;91.00;103262.56;5099100;28;20016;-66
2022/01/26 11:33:19;;;;;;;175.60;42.28;;;;;;;2.57;91.05;103255.59;5090829;28;20027;-66
2022/01/26 11:35:48;;;;;;;166.40;41.10;;;;;;;2.59;90.75;103251.53;5097304;28;20024;-65
2022/01/26 11:46:59;;;;;;;172.93;43.42;;;;;;;2.68;90.78;103229.97;5090894;28;20174;-66
2022/01/26 11:49:36;;;;;;;160.35;40.65;;;;;;;2.67;90.88;103223.94;5066017;28;20088;-73
2022/01/26 11:52:03;;;;;;;170.40;43.38;;;;;;;2.68;90.79;103222.25;5072670;28;20267;-76
2022/01/26 11:54:41;;;;;;;168.27;42.88;;;;;;;2.71;91.02;103222.53;5079852;28;20029;-73
2022/01/26 11:57:14;;;;;;;178.05;42.67;;;;;;;2.73;90.76;103226.19;5085425;28;20036;-73
2022/01/26 11:59:47;;;;;;;162.52;41.15;;;;;;;2.74;90.70;103222.84;5079960;28;20028;-73
2022/01/26 12:02:32;;;;;;;184.48;44.08;;;;;;;2.75;91.34;103212.69;5082122;28;20032;-73
2022/01/26 12:05:00;;;;;;;164.48;42.08;;;;;;;2.75;90.63;103210.13;5079853;28;20040;-73
2022/01/26 12:07:26;;;;;;;172.73;44.15;;;;;;;2.77;90.89;103216.31;5081710;28;20323;-73
2022/01/26 12:09:52;;;;;;;184.35;42.90;;;;;;;2.78;90.74;103212.97;5078307;28;20059;-73
2022/01/26 12:12:19;;;;;;;187.45;43.75;;;;;;;2.81;91.10;103211.44;5081696;28;20493;-73
2022/01/26 12:15:00;;;;;;;175.77;43.97;;;;;;;2.81;90.82;103209.78;5094219;28;20043;-73
2022/01/26 12:17:30;;;;;;;174.77;43.30;;;;;;;2.82;90.35;103213.25;5084294;28;20009;-73
2022/01/26 12:37:17;;;;;;;166.55;42.92;;;;;;;2.87;90.24;103215.50;5065973;28;20360;-73
2022/01/26 12:45:05;;;;;;;165.38;39.85;;;;;;;2.90;90.40;103220.94;5088451;28;20066;-73
2022/01/26 12:47:32;;;;;;;175.98;42.60;;;;;;;2.92;90.29;103211.66;5100835;28;20021;-74
2022/01/26 12:49:58;;;;;;;162.75;40.90;;;;;;;2.93;90.00;103213.50;5087174;28;20024;-73
2022/01/26 12:52:24;;;;;;;169.18;42.75;;;;;;;2.92;89.79;103214.25;5102012;28;20061;-73
2022/01/26 12:54:50;;;;;;;177.35;41.40;;;;;;;2.92;90.01;103211.66;5086016;28;20166;-73
2022/01/26 12:57:15;;;;;;;163.73;41.25;;;;;;;2.93;90.05;103213.50;5105224;28;20270;-74
2022/01/26 12:59:41;;;;;;;164.43;43.83;;;;;;;2.95;89.94;103216.22;5079139;28;20048;-73
2022/01/26 13:02:06;;;;;;;174.85;44.05;;;;;;;2.96;89.96;103203.47;5085875;28;20028;-73
2022/01/26 13:04:31;;;;;;;165.00;42.35;;;;;;;2.98;89.84;103207.88;5088593;28;20183;-73
2022/01/26 13:06:56;;;;;;;175.60;41.75;;;;;;;2.98;89.55;103206.19;5086559;28;20024;-73
2022/01/26 13:09:27;;;;;;;172.88;42.80;;;;;;;3.00;89.92;103204.69;5095725;28;20089;-73
2022/01/26 13:12:03;;;;;;;179.35;42.40;;;;;;;3.01;90.02;103190.13;5082485;28;20087;-74
2022/01/26 13:14:49;;;;;;;159.38;42.15;;;;;;;3.01;89.89;103179.81;5096976;28;20527;-73
2022/01/26 13:17:41;;;;;;;157.70;39.42;;;;;;;3.03;89.57;103173.16;5098799;28;20039;-73
2022/01/26 13:23:16;;;;;;;161.95;43.28;;;;;;;3.05;89.78;103182.81;5099808;28;20047;-73
2022/01/26 13:26:05;;;;;;;160.13;40.17;;;;;;;3.07;89.50;103177.78;5104745;28;20014;-73
2022/01/26 13:29:01;;;;;;;166.43;42.78;;;;;;;3.09;89.87;103178.84;5086895;28;20078;-73
2022/01/26 13:32:00;;;;;;;161.70;41.83;;;;;;;3.09;89.72;103174.59;5106615;28;20326;-73